Time;durP1;ratioP1;P1;durP2;ratioP2;P2;SDS_P1;SDS_P2;PMS_P1;PMS_P2;Temp;Humidity;BMP_temperature;BMP_pressure;BME280_temperature;BME280_humidity;BME280_pressure;Samples;Min_cycle;Max_cycle;Signal;HPM_P1;HPM_P2
2022/08/19 00:01:23;;;;;;;8.70;4.60;;;;;;;20.69;68.22;99185.25;109229;1276;22458;-58
2022/08/19 00:03:59;;;;;;;14.00;4.60;;;;;;;20.67;68.28;99180.63;109108;1276;138976;-58
2022/08/19 00:06:27;;;;;;;7.50;4.30;;;;;;;20.64;68.33;99180.05;109201;1276;23505;-59
2022/08/19 00:08:54;;;;;;;8.30;4.40;;;;;;;20.63;68.52;99179.38;109151;1276;22637;-59
2022/08/19 00:11:20;;;;;;;11.20;4.40;;;;;;;20.61;68.53;99179.44;109137;1277;138069;-59
2022/08/19 00:13:52;;;;;;;10.20;4.60;;;;;;;20.59;68.72;99185.30;109258;1276;23253;-59
2022/08/19 00:16:20;;;;;;;7.10;4.00;;;;;;;20.58;68.75;99189.83;107061;1276;139343;-58
2022/08/19 00:18:53;;;;;;;12.50;4.40;;;;;;;20.56;68.87;99188.33;104964;1277;24428;-58
2022/08/19 00:21:20;;;;;;;12.40;4.60;;;;;;;20.55;68.96;99183.69;104791;1277;26597;-58
2022/08/19 00:23:46;;;;;;;11.90;4.40;;;;;;;20.52;69.00;99182.00;104840;1277;139018;-57
2022/08/19 00:26:13;;;;;;;8.10;4.50;;;;;;;20.49;69.12;99184.55;104899;1277;24276;-57
2022/08/19 00:28:40;;;;;;;14.70;4.80;;;;;;;20.46;69.12;99181.52;104862;1277;139995;-58
2022/08/19 00:31:08;;;;;;;14.20;4.40;;;;;;;20.44;69.29;99182.38;104954;1277;22608;-58
2022/08/19 00:33:35;;;;;;;13.50;4.60;;;;;;;20.41;69.49;99186.38;104764;1277;22599;-58
2022/08/19 00:36:04;;;;;;;7.60;4.50;;;;;;;20.38;69.63;99182.90;104695;1277;139142;-58
2022/08/19 00:38:31;;;;;;;11.70;4.80;;;;;;;20.35;69.80;99184.91;109136;1277;22484;-58
2022/08/19 00:41:05;;;;;;;9.40;5.30;;;;;;;20.33;69.87;99178.58;109143;1277;141281;-58
2022/08/19 00:43:32;;;;;;;11.10;5.30;;;;;;;20.31;69.93;99181.80;109140;1277;22274;-59
2022/08/19 00:45:58;;;;;;;8.80;4.80;;;;;;;20.30;70.05;99183.23;107619;1277;139501;-57
2022/08/19 00:48:25;;;;;;;13.70;4.90;;;;;;;20.25;70.14;99185.09;104757;1277;22618;-57
2022/08/19 00:50:53;;;;;;;11.70;4.30;;;;;;;20.23;70.23;99190.60;104625;1277;22677;-58
2022/08/19 00:53:27;;;;;;;10.10;4.90;;;;;;;20.22;70.37;99193.95;104562;1278;139334;-57
2022/08/19 00:55:56;;;;;;;8.40;5.20;;;;;;;20.21;70.38;99196.66;104592;1277;22564;-58
2022/08/19 00:58:27;;;;;;;12.70;5.10;;;;;;;20.18;70.47;99197.53;104752;1277;139328;-57
2022/08/19 01:00:54;;;;;;;16.50;5.20;;;;;;;20.16;70.50;99205.18;109020;1277;22468;-58
2022/08/19 01:03:21;;;;;;;10.90;4.80;;;;;;;20.14;70.52;99203.98;109208;1276;22554;-58
2022/08/19 01:05:48;;;;;;;17.40;6.00;;;;;;;20.13;70.63;99208.59;108956;1277;139777;-58
2022/08/19 01:08:16;;;;;;;12.00;7.00;;;;;;;20.12;70.67;99204.07;109097;1277;23391;-58
2022/08/19 01:10:51;;;;;;;9.70;5.10;;;;;;;20.11;70.71;99202.38;108880;1277;138681;-58
2022/08/19 01:13:21;;;;;;;12.20;5.60;;;;;;;20.10;70.76;99206.19;109072;1277;22483;-58
2022/08/19 01:15:53;;;;;;;12.00;4.70;;;;;;;20.07;70.92;99206.55;109022;1277;140320;-58
2022/08/19 01:18:20;;;;;;;9.20;5.10;;;;;;;20.05;70.96;99205.64;109090;1277;23408;-58
2022/08/19 01:20:47;;;;;;;8.20;4.50;;;;;;;20.05;70.99;99207.56;108843;1277;22494;-58
2022/08/19 01:23:14;;;;;;;8.30;4.90;;;;;;;20.04;71.11;99204.88;109070;1277;139547;-58
2022/08/19 01:25:48;;;;;;;10.50;5.20;;;;;;;20.03;71.21;99201.53;109105;1277;22461;-58
2022/08/19 01:28:26;;;;;;;9.30;5.30;;;;;;;20.02;71.10;99200.62;109020;1277;139171;-58
2022/08/19 01:31:11;;;;;;;12.00;5.50;;;;;;;20.01;71.16;99196.78;109186;1277;23312;-58
2022/08/19 01:33:55;;;;;;;8.80;5.30;;;;;;;19.99;71.18;99195.35;109009;1276;139216;-58
2022/08/19 01:36:32;;;;;;;13.90;5.20;;;;;;;19.98;71.27;99196.59;109110;1276;22476;-58
2022/08/19 01:38:59;;;;;;;8.00;5.10;;;;;;;19.97;71.37;99195.86;109139;1276;23498;-58
2022/08/19 01:41:26;;;;;;;8.90;4.90;;;;;;;19.95;71.31;99192.39;109094;1276;139535;-58
2022/08/19 01:43:53;;;;;;;11.50;5.90;;;;;;;19.94;71.37;99188.55;109206;1277;22527;-58
2022/08/19 01:46:40;;;;;;;10.30;5.20;;;;;;;19.93;71.44;99187.93;108959;1277;140474;-59
2022/08/19 01:49:07;;;;;;;9.20;5.20;;;;;;;19.88;71.43;99187.70;109126;1277;23516;-58
2022/08/19 01:51:35;;;;;;;10.80;5.40;;;;;;;19.84;71.65;99185.05;109176;1277;23216;-58
2022/08/19 01:54:09;;;;;;;10.90;5.40;;;;;;;19.79;71.68;99181.51;109002;1277;139160;-58
2022/08/19 01:56:36;;;;;;;11.80;4.70;;;;;;;19.77;71.90;99179.20;106459;1277;23165;-57
2022/08/19 01:59:08;;;;;;;22.30;6.10;;;;;;;19.76;71.93;99176.80;104557;1277;138203;-57
2022/08/19 02:01:35;;;;;;;7.80;4.80;;;;;;;19.73;72.01;99175.20;104699;1277;22564;-58
2022/08/19 02:04:02;;;;;;;9.60;5.30;;;;;;;19.71;72.01;99169.30;104803;1276;140093;-58
2022/08/19 02:06:29;;;;;;;15.30;5.40;;;;;;;19.68;72.16;99169.63;104976;1276;22731;-58
2022/08/19 02:08:56;;;;;;;7.50;5.30;;;;;;;19.67;72.22;99175.40;104736;1276;22560;-57
2022/08/19 02:11:26;;;;;;;15.60;5.70;;;;;;;19.64;72.32;99173.88;104635;1277;139446;-58
2022/08/19 02:13:53;;;;;;;10.00;4.70;;;;;;;19.61;72.42;99180.77;109149;1276;22649;-58
2022/08/19 02:16:21;;;;;;;9.30;5.60;;;;;;;19.56;72.54;99177.30;109127;1276;138961;-58
2022/08/19 02:18:50;;;;;;;9.20;5.70;;;;;;;19.51;72.68;99182.98;109106;1276;23236;-58
2022/08/19 02:21:18;;;;;;;10.40;6.40;;;;;;;19.48;72.82;99185.98;109180;1276;23045;-59
2022/08/19 02:23:45;;;;;;;15.30;6.40;;;;;;;19.46;73.06;99187.89;109060;1276;138537;-58
2022/08/19 02:26:12;;;;;;;11.90;6.20;;;;;;;19.43;73.06;99187.13;107338;1277;22579;-58
2022/08/19 02:28:40;;;;;;;11.50;5.90;;;;;;;19.41;73.20;99191.67;104765;1277;138258;-58
2022/08/19 02:31:12;;;;;;;11.60;5.90;;;;;;;19.38;73.43;99187.80;104882;1276;22737;-58
2022/08/19 02:33:39;;;;;;;15.20;5.70;;;;;;;19.34;73.48;99186.14;104837;1276;22743;-58
2022/08/19 02:36:06;;;;;;;13.30;6.50;;;;;;;19.31;73.71;99185.92;104594;1277;139065;-58
2022/08/19 02:38:34;;;;;;;16.20;6.60;;;;;;;19.28;73.77;99185.14;104999;1277;24923;-58
2022/08/19 02:41:04;;;;;;;11.30;5.80;;;;;;;19.25;74.06;99187.83;104828;1277;140165;-58
2022/08/19 02:43:36;;;;;;;12.20;6.70;;;;;;;19.23;74.02;99191.40;104750;1277;22672;-57
2022/08/19 02:46:21;;;;;;;16.60;6.00;;;;;;;19.20;74.19;99187.61;109127;1275;139157;-57
2022/08/19 02:48:52;;;;;;;13.50;5.60;;;;;;;19.17;74.32;99188.19;109235;1276;22560;-57
2022/08/19 02:51:26;;;;;;;10.00;5.70;;;;;;;19.15;74.48;99187.91;109107;1277;22565;-57
2022/08/19 02:53:53;;;;;;;15.00;5.90;;;;;;;19.13;74.60;99185.25;109040;1276;138829;-58
2022/08/19 02:56:20;;;;;;;10.30;5.80;;;;;;;19.10;74.76;99193.13;109262;1276;22219;-58
2022/08/19 02:58:48;;;;;;;10.50;5.50;;;;;;;19.08;74.77;99201.86;109093;1276;139485;-58
2022/08/19 03:01:22;;;;;;;7.30;5.80;;;;;;;19.05;74.99;99203.05;109322;1276;22524;-58
2022/08/19 03:03:49;;;;;;;11.60;5.80;;;;;;;19.03;75.18;99200.25;109193;1275;140303;-58
2022/08/19 03:06:16;;;;;;;11.70;5.90;;;;;;;19.01;75.16;99198.80;109116;1277;23353;-58
2022/08/19 03:08:44;;;;;;;10.40;6.10;;;;;;;19.01;75.21;99198.97;109120;1277;22440;-58
2022/08/19 03:11:18;;;;;;;12.20;5.40;;;;;;;19.02;75.26;99198.85;109192;1276;140319;-58
2022/08/19 03:13:45;;;;;;;10.70;6.60;;;;;;;19.03;75.25;99200.38;109236;1276;22467;-58
2022/08/19 03:16:12;;;;;;;11.80;5.60;;;;;;;19.01;75.40;99200.30;109067;1276;139680;-58
2022/08/19 03:18:38;;;;;;;13.40;6.30;;;;;;;18.99;75.40;99206.78;109176;1277;22471;-58
2022/08/19 03:21:05;;;;;;;9.20;5.60;;;;;;;18.97;75.56;99209.54;109234;1276;22425;-58
2022/08/19 03:23:38;;;;;;;10.70;6.60;;;;;;;18.97;75.58;99216.88;109171;1275;138861;-58
2022/08/19 03:26:05;;;;;;;10.60;6.50;;;;;;;18.96;75.68;99219.54;109189;1276;23371;-57
2022/08/19 03:28:43;;;;;;;10.10;6.30;;;;;;;18.95;75.76;99213.55;109041;1277;140521;-58
2022/08/19 03:31:19;;;;;;;8.40;5.30;;;;;;;18.95;75.75;99213.73;109156;1277;23510;-58
2022/08/19 03:34:06;;;;;;;9.70;5.50;;;;;;;18.96;75.78;99214.92;109073;1277;138743;-58
2022/08/19 03:36:33;;;;;;;17.40;6.10;;;;;;;18.95;75.77;99210.34;109142;1277;22477;-57
2022/08/19 03:39:00;;;;;;;9.40;6.00;;;;;;;18.96;75.69;99212.01;109137;1277;22545;-58
2022/08/19 03:41:31;;;;;;;12.10;6.10;;;;;;;18.96;75.79;99215.98;109135;1276;138936;-58
2022/08/19 03:44:10;;;;;;;13.00;6.20;;;;;;;18.96;75.63;99216.77;109201;1276;22438;-58
2022/08/19 03:46:43;;;;;;;11.60;5.80;;;;;;;18.97;75.75;99220.81;109068;1275;138315;-58
2022/08/19 03:49:10;;;;;;;15.20;5.10;;;;;;;18.97;75.89;99225.98;109088;1276;22480;-58
2022/08/19 03:51:40;;;;;;;12.00;6.10;;;;;;;18.98;75.68;99225.55;109153;1276;23160;-58
2022/08/19 03:54:08;;;;;;;12.00;6.00;;;;;;;18.99;75.81;99232.84;109092;1277;139215;-58
2022/08/19 03:56:36;;;;;;;9.70;5.30;;;;;;;19.00;75.80;99234.57;109172;1277;22561;-58
2022/08/19 03:59:03;;;;;;;13.50;6.10;;;;;;;19.02;75.64;99233.15;109040;1277;138886;-58
2022/08/19 04:01:30;;;;;;;11.60;6.40;;;;;;;19.03;75.71;99235.59;109142;1277;23111;-58
2022/08/19 04:04:01;;;;;;;11.80;5.40;;;;;;;19.05;75.68;99230.50;109062;1276;139823;-58
2022/08/19 04:06:31;;;;;;;9.80;5.90;;;;;;;19.08;75.70;99230.41;106815;1277;22928;-57
2022/08/19 04:08:59;;;;;;;13.90;6.50;;;;;;;19.11;75.60;99225.81;109129;1277;22458;-57
2022/08/19 04:11:30;;;;;;;16.80;5.60;;;;;;;19.13;75.42;99221.92;109046;1277;139571;-57
2022/08/19 04:14:14;;;;;;;19.80;7.00;;;;;;;19.16;75.26;99224.58;109149;1276;23085;-57
2022/08/19 04:16:43;;;;;;;16.80;5.40;;;;;;;19.17;75.15;99223.31;109040;1276;138440;-56
2022/08/19 04:19:10;;;;;;;14.40;5.20;;;;;;;19.20;75.03;99229.51;109103;1277;22572;-56
2022/08/19 04:21:37;;;;;;;17.50;6.60;;;;;;;19.23;74.93;99231.23;109167;1276;22457;-56
2022/08/19 04:24:04;;;;;;;11.10;6.00;;;;;;;19.27;74.87;99233.79;108930;1278;138394;-56
2022/08/19 04:26:33;;;;;;;18.30;7.20;;;;;;;19.31;74.84;99232.23;109226;1275;22441;-56
2022/08/19 04:29:01;;;;;;;10.30;5.30;;;;;;;19.35;74.54;99232.26;109149;1276;140563;-56
2022/08/19 04:31:29;;;;;;;17.80;6.10;;;;;;;19.37;74.02;99232.55;109331;1274;22456;-56
2022/08/19 04:33:56;;;;;;;16.50;5.40;;;;;;;19.40;73.91;99233.21;109163;1276;138550;-56
2022/08/19 04:36:34;;;;;;;9.60;5.40;;;;;;;19.45;73.87;99239.92;106950;1276;22691;-56
2022/08/19 04:39:15;;;;;;;6.30;4.70;;;;;;;19.51;73.84;99245.11;104951;1277;22557;-56
2022/08/19 04:44:30;;;;;;;7.10;5.30;;;;;;;19.60;73.03;99253.63;105018;1276;22560;-58
2022/08/19 04:46:58;;;;;;;13.20;6.40;;;;;;;19.65;72.83;99254.86;109195;1276;139268;-56
2022/08/19 04:49:27;;;;;;;8.30;4.80;;;;;;;19.70;72.72;99255.28;109172;1276;23498;-56
2022/08/19 04:51:54;;;;;;;10.80;5.60;;;;;;;19.76;72.52;99260.52;109025;1275;139269;-56
2022/08/19 04:54:22;;;;;;;12.70;5.40;;;;;;;19.80;72.50;99262.60;109265;1275;22403;-56
2022/08/19 04:57:08;;;;;;;8.10;5.10;;;;;;;19.86;72.27;99263.71;109225;1276;22897;-57
2022/08/19 04:59:36;;;;;;;18.10;6.10;;;;;;;19.93;72.00;99263.64;109195;1274;139691;-59
2022/08/19 05:02:03;;;;;;;9.20;5.40;;;;;;;20.04;71.98;99266.47;109283;1275;22564;-56
2022/08/19 05:04:33;;;;;;;13.10;5.50;;;;;;;20.23;71.44;99269.58;109017;1276;140023;-57
2022/08/19 05:07:00;;;;;;;14.80;6.40;;;;;;;20.41;70.66;99269.23;105984;1276;24382;-56
2022/08/19 05:09:28;;;;;;;10.60;5.20;;;;;;;20.59;70.26;99269.06;109113;1274;22603;-57
2022/08/19 05:12:15;;;;;;;;;;;;;;;20.83;69.72;99265.23;109289;1274;23166;-57
2022/08/19 05:14:43;;;;;;;12.20;5.10;;;;;;;21.05;69.11;99258.02;109286;1274;22519;-57
2022/08/19 05:17:09;;;;;;;8.90;4.30;;;;;;;21.27;68.08;99261.77;109035;1274;138963;-57
2022/08/19 05:22:39;;;;;;;11.20;5.10;;;;;;;21.59;66.53;99274.35;109123;1274;138099;-57
2022/08/19 05:25:08;;;;;;;13.60;6.00;;;;;;;21.74;66.38;99276.60;109371;1274;22527;-57
2022/08/19 05:27:39;;;;;;;10.60;5.10;;;;;;;21.89;65.33;99275.80;109307;1276;22405;-57
2022/08/19 05:30:06;;;;;;;9.50;4.90;;;;;;;21.93;65.02;99272.81;109127;1276;137388;-57
2022/08/19 05:32:33;;;;;;;14.80;5.30;;;;;;;22.01;64.76;99274.55;109159;1277;23239;-57
2022/08/19 05:35:00;;;;;;;10.80;5.60;;;;;;;22.10;64.22;99277.51;109075;1274;138486;-57
2022/08/19 05:37:27;;;;;;;7.60;5.10;;;;;;;22.16;63.83;99275.59;109191;1274;22469;-57
2022/08/19 05:39:54;;;;;;;9.20;4.80;;;;;;;22.18;63.41;99275.92;109074;1275;137765;-57
2022/08/19 05:42:22;;;;;;;16.20;5.40;;;;;;;22.24;63.76;99274.46;109384;1273;22460;-57
2022/08/19 05:44:49;;;;;;;10.90;5.40;;;;;;;22.36;63.40;99274.71;109323;1274;22547;-57
2022/08/19 05:47:16;;;;;;;11.60;4.90;;;;;;;22.44;63.31;99275.96;109118;1274;138540;-57
2022/08/19 05:49:43;;;;;;;13.30;5.00;;;;;;;22.50;63.02;99274.66;108166;1276;1371108;-57
2022/08/19 05:54:18;;;;;;;12.80;5.00;;;;;;;22.58;62.89;99281.23;101796;1309;545153;-58
2022/08/19 05:56:47;;;;;;;11.80;5.40;;;;;;;22.60;62.38;99279.32;103926;1286;24337;-58
2022/08/19 05:59:15;;;;;;;8.80;5.10;;;;;;;22.64;62.55;99281.18;103707;1286;137429;-56
2022/08/19 06:01:45;;;;;;;12.00;4.60;;;;;;;22.64;62.29;99278.04;103804;1290;22749;-57
2022/08/19 06:04:13;;;;;;;9.40;5.40;;;;;;;22.63;62.51;99276.98;103620;1287;137528;-57
2022/08/19 06:06:40;;;;;;;12.20;5.80;;;;;;;22.64;62.14;99276.20;103769;1289;22638;-57
2022/08/19 06:09:07;;;;;;;11.30;5.70;;;;;;;22.59;62.25;99274.20;102970;1286;1409515;-56
2022/08/19 06:11:40;;;;;;;10.80;5.30;;;;;;;22.54;62.46;99269.80;108217;1285;138472;-57
2022/08/19 06:14:09;;;;;;;13.70;5.50;;;;;;;22.50;62.58;99267.86;108322;1286;22446;-57
2022/08/19 06:16:42;;;;;;;9.80;5.40;;;;;;;22.47;62.72;99259.52;108169;1285;138145;-57
2022/08/19 06:19:12;;;;;;;10.60;5.20;;;;;;;22.42;62.67;99258.67;108215;1286;23631;-57
2022/08/19 06:21:40;;;;;;;14.40;5.00;;;;;;;22.34;63.03;99255.54;108299;1286;22380;-57
2022/08/19 06:24:09;;;;;;;13.80;5.50;;;;;;;22.31;63.28;99255.75;108214;1285;137895;-57
2022/08/19 06:26:36;;;;;;;9.80;5.20;;;;;;;22.30;63.24;99258.65;108356;1286;22642;-57
2022/08/19 06:29:05;;;;;;;10.50;5.50;;;;;;;22.25;63.25;99259.73;108230;1286;137828;-57
2022/08/19 06:31:33;;;;;;;10.50;5.20;;;;;;;22.18;63.30;99264.80;108354;1285;23223;-57
2022/08/19 06:34:04;;;;;;;13.60;4.70;;;;;;;22.09;63.55;99263.05;108150;1286;138237;-58
2022/08/19 06:36:59;;;;;;;9.50;5.40;;;;;;;22.02;63.99;99259.46;108315;1286;22437;-57
2022/08/19 06:39:28;;;;;;;10.90;5.00;;;;;;;22.02;64.19;99261.22;108237;1286;22472;-57
2022/08/19 06:41:57;;;;;;;10.20;5.20;;;;;;;22.06;64.05;99262.22;107851;1287;137808;-57
2022/08/19 06:44:31;;;;;;;19.30;5.10;;;;;;;22.07;63.90;99266.70;108189;1286;23207;-57
2022/08/19 06:46:57;;;;;;;12.20;4.80;;;;;;;22.06;63.82;99263.69;108211;1283;138782;-57
2022/08/19 06:49:27;;;;;;;15.30;5.80;;;;;;;22.06;63.98;99268.18;108337;1284;22475;-57
2022/08/19 06:51:56;;;;;;;11.40;4.80;;;;;;;22.06;63.95;99269.14;108260;1283;138086;-57
2022/08/19 06:54:23;;;;;;;15.10;5.20;;;;;;;22.04;64.20;99272.48;108349;1284;22391;-57
2022/08/19 06:56:57;;;;;;;15.10;4.90;;;;;;;22.05;64.22;99272.60;108338;1284;22500;-57
2022/08/19 06:59:27;;;;;;;9.80;4.60;;;;;;;22.09;64.51;99274.14;108301;1284;137760;-56
2022/08/19 07:01:55;;;;;;;13.00;5.70;;;;;;;22.12;64.68;99278.37;108382;1284;22481;-56
2022/08/19 07:04:25;;;;;;;15.80;5.00;;;;;;;22.14;64.40;99280.54;108211;1286;138335;-56
2022/08/19 07:07:00;;;;;;;11.10;5.60;;;;;;;22.16;63.78;99283.46;108293;1286;22600;-56
2022/08/19 07:09:46;;;;;;;16.30;4.90;;;;;;;22.13;64.11;99284.52;108311;1284;22463;-57
2022/08/19 07:12:26;;;;;;;11.50;4.60;;;;;;;22.15;63.89;99284.77;108363;1283;22552;-56
2022/08/19 07:14:55;;;;;;;20.70;5.10;;;;;;;22.17;63.76;99277.41;108348;1285;22455;-57
2022/08/19 07:17:23;;;;;;;16.70;5.10;;;;;;;22.20;63.74;99278.92;108324;1286;138833;-57
2022/08/19 07:19:50;;;;;;;15.90;5.50;;;;;;;22.24;63.39;99278.64;108361;1284;22544;-57
2022/08/19 07:22:22;;;;;;;16.80;5.90;;;;;;;22.23;63.42;99269.27;108250;1284;137355;-57
2022/08/19 07:24:51;;;;;;;12.70;5.10;;;;;;;22.25;63.65;99262.58;108247;1286;22465;-57
2022/08/19 07:27:18;;;;;;;16.60;6.20;;;;;;;22.28;63.15;99270.06;108364;1286;23237;-57
2022/08/19 07:29:54;;;;;;;9.60;5.30;;;;;;;22.29;63.02;99265.90;108205;1284;137643;-57
2022/08/19 07:32:26;;;;;;;16.70;6.10;;;;;;;22.30;63.38;99268.31;108293;1284;22450;-57
2022/08/19 07:34:53;;;;;;;12.70;5.70;;;;;;;22.32;63.48;99265.77;108170;1284;138804;-57
2022/08/19 07:37:19;;;;;;;17.60;5.40;;;;;;;22.36;63.34;99265.91;108211;1285;23161;-57
2022/08/19 07:39:46;;;;;;;17.10;5.20;;;;;;;22.40;63.44;99271.23;108218;1286;22491;-57
2022/08/19 07:42:14;;;;;;;11.40;5.20;;;;;;;22.45;63.37;99272.85;108238;1284;138119;-57
2022/08/19 07:44:41;;;;;;;12.00;5.20;;;;;;;22.50;63.24;99272.60;108242;1286;22379;-57
2022/08/19 07:47:18;;;;;;;12.20;6.30;;;;;;;22.54;63.07;99272.81;109317;1274;140063;-57
2022/08/19 07:50:06;;;;;;;13.30;5.00;;;;;;;22.57;63.18;99276.99;109381;1274;22688;-57
2022/08/19 07:52:34;;;;;;;12.00;5.70;;;;;;;22.61;63.10;99274.73;109239;1274;137867;-57
2022/08/19 07:55:03;;;;;;;15.60;5.40;;;;;;;22.63;63.07;99272.27;109310;1274;22497;-57
2022/08/19 07:57:30;;;;;;;12.00;5.00;;;;;;;22.66;63.05;99274.60;109324;1274;22420;-57
2022/08/19 07:59:57;;;;;;;11.00;5.00;;;;;;;22.69;63.12;99278.83;109213;1274;138260;-57
2022/08/19 08:02:24;;;;;;;12.20;4.70;;;;;;;22.72;62.74;99279.09;109310;1274;22436;-57
2022/08/19 08:10:21;;;;;;;9.60;4.80;;;;;;;22.88;62.68;99285.17;109321;1274;139640;-57
2022/08/19 08:12:50;;;;;;;12.90;5.40;;;;;;;22.91;62.27;99289.16;109426;1274;22457;-57
2022/08/19 08:15:38;;;;;;;15.80;5.80;;;;;;;22.93;62.55;99291.77;109405;1274;23676;-57
2022/08/19 08:18:09;;;;;;;21.10;5.20;;;;;;;22.93;62.59;99292.86;109233;1274;137897;-56
2022/08/19 08:20:36;;;;;;;15.90;5.80;;;;;;;22.95;62.75;99297.34;109161;1277;22541;-57
2022/08/19 08:25:48;;;;;;;17.80;6.40;;;;;;;22.99;62.83;99298.14;109338;1274;22398;-57
2022/08/19 08:28:16;;;;;;;16.90;6.70;;;;;;;23.03;62.45;99299.77;109323;1274;138342;-57
2022/08/19 08:30:45;;;;;;;20.70;6.00;;;;;;;23.05;62.44;99299.05;109234;1274;23133;-57
2022/08/19 08:33:13;;;;;;;15.40;6.40;;;;;;;23.07;62.56;99300.79;109374;1273;23118;-57
2022/08/19 08:35:45;;;;;;;17.90;5.90;;;;;;;23.10;62.47;99301.50;109198;1274;137468;-57
2022/08/19 08:38:12;;;;;;;12.40;5.60;;;;;;;23.12;62.32;99305.95;109308;1274;22552;-57
2022/08/19 08:40:50;;;;;;;13.00;5.40;;;;;;;23.16;62.23;99298.94;109262;1274;137847;-57
2022/08/19 08:43:36;;;;;;;18.00;7.10;;;;;;;23.21;62.56;99302.69;109248;1274;22482;-57
2022/08/19 08:46:09;;;;;;;12.00;5.60;;;;;;;23.26;62.48;99300.85;109269;1274;137997;-57
2022/08/19 08:48:53;;;;;;;12.50;5.40;;;;;;;23.31;62.18;99298.33;109391;1274;22462;-57
2022/08/19 08:51:36;;;;;;;14.60;5.80;;;;;;;23.33;62.13;99300.95;109417;1274;22437;-57
2022/08/19 08:54:06;;;;;;;19.10;6.30;;;;;;;23.34;61.94;99296.44;109136;1274;138114;-58
2022/08/19 08:56:38;;;;;;;9.60;5.40;;;;;;;23.35;62.02;99295.13;109233;1274;23461;-58
2022/08/19 08:59:09;;;;;;;15.60;6.00;;;;;;;23.38;62.35;99299.52;109355;1274;137297;-60
2022/08/19 09:01:36;;;;;;;18.50;6.30;;;;;;;23.42;62.30;99297.54;109317;1273;23369;-59
2022/08/19 09:04:05;;;;;;;19.10;6.10;;;;;;;23.45;62.71;99295.83;109297;1274;139493;-58
2022/08/19 09:06:37;;;;;;;10.10;5.70;;;;;;;23.51;62.61;99293.60;109205;1273;22443;-58
2022/08/19 09:09:28;;;;;;;15.50;6.10;;;;;;;23.59;62.28;99298.21;109234;1274;23173;-58
2022/08/19 09:11:54;;;;;;;37.40;8.40;;;;;;;23.65;62.14;99296.57;109301;1274;138350;-58
2022/08/19 09:14:54;;;;;;;15.90;6.60;;;;;;;23.67;61.72;99296.61;109316;1273;22494;-58
2022/08/19 09:17:30;;;;;;;16.20;6.00;;;;;;;23.66;62.09;99302.79;109247;1274;139454;-58
2022/08/19 09:20:18;;;;;;;14.60;5.70;;;;;;;23.68;61.86;99310.70;109383;1274;23271;-57
2022/08/19 09:22:45;;;;;;;17.70;6.80;;;;;;;23.68;61.88;99310.56;109282;1274;138131;-58
2022/08/19 09:25:14;;;;;;;14.30;5.90;;;;;;;23.69;62.27;99314.64;109283;1274;22430;-57
2022/08/19 09:27:41;;;;;;;15.50;7.50;;;;;;;23.74;62.26;99319.20;109371;1274;22475;-58
2022/08/19 09:30:15;;;;;;;17.90;6.00;;;;;;;23.78;62.31;99315.02;109237;1274;138246;-58
2022/08/19 09:32:42;;;;;;;15.30;6.00;;;;;;;23.78;61.77;99314.50;109431;1273;22937;-58
2022/08/19 09:35:09;;;;;;;16.10;5.40;;;;;;;23.80;62.58;99321.52;109212;1274;138631;-57
2022/08/19 09:37:37;;;;;;;13.80;6.90;;;;;;;23.86;62.11;99316.94;109302;1273;22417;-58
2022/08/19 09:40:06;;;;;;;12.00;6.20;;;;;;;23.90;61.73;99314.27;109322;1274;139504;-58
2022/08/19 09:42:37;;;;;;;17.40;6.20;;;;;;;23.93;62.19;99319.45;109315;1273;22667;-60
2022/08/19 09:45:16;;;;;;;10.80;6.30;;;;;;;23.97;62.16;99319.25;109379;1274;22425;-58
2022/08/19 09:47:43;;;;;;;18.70;6.60;;;;;;;23.96;61.98;99318.35;109196;1274;138259;-58
2022/08/19 09:50:13;;;;;;;12.40;6.60;;;;;;;23.92;61.67;99318.65;109334;1274;22448;-58
2022/08/19 09:52:42;;;;;;;11.80;5.60;;;;;;;23.89;62.29;99316.15;109204;1277;138649;-58
2022/08/19 09:55:22;;;;;;;16.20;7.40;;;;;;;23.88;62.41;99309.13;109309;1274;22464;-63
2022/08/19 09:57:49;;;;;;;13.80;6.30;;;;;;;23.87;62.41;99313.39;109390;1274;22594;-63
2022/08/19 10:00:16;;;;;;;13.80;7.10;;;;;;;23.90;62.77;99314.27;109246;1274;137633;-63
2022/08/19 10:02:43;;;;;;;9.00;5.20;;;;;;;23.93;62.82;99318.44;109295;1274;22437;-63
2022/08/19 10:07:57;;;;;;;13.90;5.80;;;;;;;24.04;63.01;99329.70;109329;1274;22663;-63
2022/08/19 10:10:23;;;;;;;12.70;6.60;;;;;;;24.05;62.90;99332.45;109115;1276;139133;-63
2022/08/19 10:12:50;;;;;;;13.00;5.70;;;;;;;24.08;62.94;99328.02;109253;1276;22440;-63
2022/08/19 10:15:20;;;;;;;13.60;6.10;;;;;;;24.13;62.78;99323.86;109152;1277;22456;-63
2022/08/19 10:17:55;;;;;;;17.30;6.60;;;;;;;24.22;62.64;99332.80;109212;1274;138592;-63
2022/08/19 10:20:24;;;;;;;11.10;6.00;;;;;;;24.30;62.41;99324.86;109340;1274;22640;-63
2022/08/19 10:22:51;;;;;;;14.00;6.60;;;;;;;24.34;61.98;99327.92;109196;1275;138152;-63
2022/08/19 10:25:19;;;;;;;10.00;6.30;;;;;;;24.35;62.08;99328.27;108868;1276;25393;-63
2022/08/19 10:27:45;;;;;;;16.20;5.60;;;;;;;24.37;62.17;99332.14;104821;1277;23342;-63
2022/08/19 10:30:21;;;;;;;12.40;6.30;;;;;;;24.38;62.48;99329.94;109183;1276;22520;-63
2022/08/19 10:32:50;;;;;;;11.00;5.90;;;;;;;24.39;61.99;99331.95;109140;1277;22464;-63
2022/08/19 10:35:18;;;;;;;11.30;6.20;;;;;;;24.37;62.12;99334.95;109039;1274;138500;-63
2022/08/19 10:37:47;;;;;;;13.10;6.50;;;;;;;24.36;62.15;99338.96;109260;1274;22507;-63
2022/08/19 10:40:26;;;;;;;7.40;5.50;;;;;;;24.34;62.52;99348.55;109138;1274;138248;-63
2022/08/19 10:42:55;;;;;;;23.20;14.10;;;;;;;24.33;62.42;99353.52;109194;1274;22524;-66
2022/08/19 10:45:24;;;;;;;19.70;10.40;;;;;;;24.29;62.16;99349.27;109362;1274;22449;-66
2022/08/19 10:47:53;;;;;;;15.50;9.40;;;;;;;24.27;62.20;99351.02;109151;1276;138428;-65
2022/08/19 10:53:10;;;;;;;13.60;6.80;;;;;;;24.18;62.63;99361.08;109191;1274;138799;-63
2022/08/19 10:58:23;;;;;;;11.70;5.40;;;;;;;24.15;62.55;99370.67;109232;1274;138138;-63
2022/08/19 11:00:55;;;;;;;15.10;6.40;;;;;;;24.12;62.19;99373.46;109190;1274;22580;-62
2022/08/19 11:03:22;;;;;;;14.90;5.80;;;;;;;24.10;62.26;99370.55;109166;1274;22475;-63
2022/08/19 11:06:00;;;;;;;21.80;5.30;;;;;;;24.12;62.00;99373.79;109013;1277;138647;-63
2022/08/19 11:08:27;;;;;;;10.70;5.50;;;;;;;24.17;61.68;99368.68;109257;1274;22257;-62
2022/08/19 11:10:58;;;;;;;12.60;5.40;;;;;;;24.18;61.06;99366.02;109168;1274;138618;-63
2022/08/19 11:13:33;;;;;;;13.10;6.40;;;;;;;24.17;61.01;99371.40;109368;1274;23269;-63
2022/08/19 11:16:04;;;;;;;12.80;5.60;;;;;;;24.15;61.05;99363.27;109135;1275;138710;-63
2022/08/19 11:18:48;;;;;;;16.20;5.80;;;;;;;24.15;61.49;99362.42;109317;1274;23276;-62
2022/08/19 11:21:25;;;;;;;9.50;5.80;;;;;;;24.17;61.54;99359.29;109293;1274;22446;-62
2022/08/19 11:23:54;;;;;;;9.90;5.70;;;;;;;24.18;61.66;99359.89;109101;1276;139399;-62
2022/08/19 11:26:21;;;;;;;14.50;5.70;;;;;;;24.18;61.30;99361.66;109307;1274;22453;-63
2022/08/19 11:28:50;;;;;;;13.70;5.70;;;;;;;24.19;62.05;99357.55;109268;1274;138589;-63
2022/08/19 11:31:20;;;;;;;15.60;5.40;;;;;;;24.25;62.53;99353.60;109413;1274;22918;-63
2022/08/19 11:33:51;;;;;;;12.20;5.60;;;;;;;24.37;61.90;99350.44;109337;1274;22695;-62
2022/08/19 11:36:18;;;;;;;22.30;11.60;;;;;;;24.46;61.27;99360.27;109265;1274;22444;-67
2022/08/19 11:38:48;;;;;;;10.50;5.30;;;;;;;24.51;60.53;99357.40;109274;1274;22600;-63
2022/08/19 11:41:15;;;;;;;13.00;5.50;;;;;;;24.52;60.03;99358.11;109226;1274;138780;-62
2022/08/19 11:43:42;;;;;;;11.50;5.40;;;;;;;24.49;59.58;99357.80;109287;1274;22408;-62
2022/08/19 11:46:11;;;;;;;13.60;5.20;;;;;;;24.44;59.77;99355.52;109127;1274;137700;-63
2022/08/19 11:48:38;;;;;;;11.80;5.20;;;;;;;24.42;59.83;99353.93;109315;1274;22461;-62
2022/08/19 11:51:10;;;;;;;12.40;4.70;;;;;;;24.42;60.07;99358.52;109344;1274;22495;-62
2022/08/19 11:53:37;;;;;;;15.10;5.80;;;;;;;24.42;60.09;99358.46;109142;1274;138389;-63